Time;durP1;ratioP1;P1;durP2;ratioP2;P2;SDS_P1;SDS_P2;PMS_P1;PMS_P2;Temp;Humidity;BMP_temperature;BMP_pressure;BME280_temperature;BME280_humidity;BME280_pressure;Samples;Min_cycle;Max_cycle;Signal;HPM_P1;HPM_P2
2024/04/18 00:01:05;;;;;;;5.88;3.97;;;;;;;3.48;100.00;97944.16;6109051;19;20013;-77
2024/04/18 00:03:06;;;;;;;3.90;3.30;;;;;;;3.50;100.00;97950.88;6107173;19;20016;-77
2024/04/18 00:05:06;;;;;;;5.90;3.40;;;;;;;3.49;100.00;97938.34;6110444;19;20242;-77
2024/04/18 00:07:06;;;;;;;4.38;3.50;;;;;;;3.48;100.00;97941.41;6108577;19;20010;-77
2024/04/18 00:09:07;;;;;;;4.75;3.92;;;;;;;3.53;100.00;97946.63;6105851;19;20018;-77
2024/04/18 00:11:07;;;;;;;5.80;3.75;;;;;;;3.53;100.00;97952.91;6106931;19;20010;-77
2024/04/18 00:13:08;;;;;;;5.43;4.38;;;;;;;3.58;100.00;97952.69;6107843;19;20019;-77
2024/04/18 00:15:08;;;;;;;4.72;3.90;;;;;;;3.59;100.00;97951.53;6108331;19;20013;-77
2024/04/18 00:17:08;;;;;;;9.45;4.70;;;;;;;3.57;100.00;97944.81;6109944;19;20011;-77
2024/04/18 00:19:09;;;;;;;4.70;4.15;;;;;;;3.62;100.00;97952.78;6106613;19;20338;-77
2024/04/18 00:21:09;;;;;;;6.57;4.78;;;;;;;3.57;100.00;97950.28;6105502;19;20034;-77
2024/04/18 00:23:09;;;;;;;7.35;4.75;;;;;;;3.49;100.00;97949.28;6107648;19;20002;-77
2024/04/18 00:25:10;;;;;;;9.20;5.50;;;;;;;3.44;100.00;97959.63;6108204;19;20289;-77
2024/04/18 00:27:10;;;;;;;7.55;5.00;;;;;;;3.46;100.00;97949.94;6108613;19;20002;-77
2024/04/18 00:29:10;;;;;;;6.22;4.72;;;;;;;3.37;100.00;97955.53;6108321;19;20004;-77
2024/04/18 00:31:11;;;;;;;6.38;4.88;;;;;;;3.36;100.00;97953.94;6106009;19;20003;-77
2024/04/18 00:33:11;;;;;;;8.15;4.88;;;;;;;3.43;100.00;97947.91;6109031;19;20023;-77
2024/04/18 00:35:11;;;;;;;7.93;4.60;;;;;;;3.49;100.00;97954.75;6106723;19;20006;-77
2024/04/18 00:37:12;;;;;;;6.65;4.57;;;;;;;3.40;100.00;97954.06;6106288;19;20006;-77
2024/04/18 00:39:12;;;;;;;6.97;4.95;;;;;;;3.49;100.00;97952.00;6106636;19;20014;-77
2024/04/18 00:41:12;;;;;;;7.90;5.05;;;;;;;3.40;100.00;97958.75;6105889;19;20509;-77
2024/04/18 00:43:13;;;;;;;6.47;4.63;;;;;;;3.34;100.00;97958.97;6108045;19;20019;-77
2024/04/18 00:45:13;;;;;;;6.22;5.20;;;;;;;3.39;100.00;97957.91;6107156;19;20014;-77
2024/04/18 00:47:16;;;;;;;6.88;5.07;;;;;;;3.38;100.00;97956.34;6105363;19;20013;-77
2024/04/18 00:49:16;;;;;;;;;;;;;;;3.32;100.00;97955.00;6108430;19;20006;-77
2024/04/18 00:51:17;;;;;;;8.05;5.18;;;;;;;3.29;100.00;97963.84;6105684;19;19945;-77
2024/04/18 00:53:18;;;;;;;7.70;5.68;;;;;;;3.28;100.00;97965.78;6108266;19;20010;-77
2024/04/18 00:55:18;;;;;;;11.73;6.35;;;;;;;3.25;100.00;97960.22;6106705;19;20017;-77
2024/04/18 00:57:18;;;;;;;7.13;5.60;;;;;;;3.19;100.00;97953.38;6106209;19;19999;-77
2024/04/18 00:59:19;;;;;;;10.63;5.80;;;;;;;3.30;100.00;97962.72;6106013;19;20086;-77
2024/04/18 01:01:21;;;;;;;8.18;6.00;;;;;;;3.31;100.00;97958.84;6106825;19;20011;-77
2024/04/18 01:03:21;;;;;;;9.80;5.72;;;;;;;3.27;100.00;97964.22;6105494;19;20033;-77
2024/04/18 01:05:21;;;;;;;6.85;5.15;;;;;;;3.27;100.00;97960.69;6106336;19;20062;-77
2024/04/18 01:07:22;;;;;;;9.00;5.90;;;;;;;3.23;100.00;97966.03;6106032;19;20439;-77
2024/04/18 01:09:22;;;;;;;8.98;5.00;;;;;;;3.24;100.00;97964.09;6106582;19;20014;-77
2024/04/18 01:11:23;;;;;;;9.15;5.05;;;;;;;3.23;100.00;97959.78;6105356;19;20010;-77
2024/04/18 01:13:23;;;;;;;7.18;5.70;;;;;;;3.21;100.00;97965.56;6107647;19;20820;-77
2024/04/18 01:15:23;;;;;;;6.65;5.65;;;;;;;3.18;100.00;97968.19;6107213;19;20010;-77
2024/04/18 01:17:23;;;;;;;8.93;5.53;;;;;;;3.18;100.00;97960.00;6107355;19;20022;-77
2024/04/18 01:19:24;;;;;;;7.00;5.03;;;;;;;3.20;100.00;97966.72;6107270;19;20066;-77
2024/04/18 01:21:24;;;;;;;6.18;5.50;;;;;;;3.20;100.00;97965.91;6105452;19;20006;-77
2024/04/18 01:23:28;;;;;;;8.35;5.13;;;;;;;3.20;100.00;97965.91;6105338;19;20003;-77
2024/04/18 01:25:28;;;;;;;6.07;5.03;;;;;;;3.23;100.00;97967.97;6104969;19;20030;-77
2024/04/18 01:27:28;;;;;;;7.53;5.15;;;;;;;3.25;100.00;97965.69;6106111;19;20916;-77
2024/04/18 01:29:29;;;;;;;7.43;4.95;;;;;;;3.26;100.00;97965.34;6104293;19;20575;-77
2024/04/18 01:31:29;;;;;;;5.88;4.65;;;;;;;3.26;100.00;97967.28;6104243;19;20015;-77
2024/04/18 01:33:31;;;;;;;6.90;4.90;;;;;;;3.25;100.00;97969.22;6107918;19;20035;-77
2024/04/18 01:35:31;;;;;;;6.50;5.53;;;;;;;3.30;100.00;97970.91;6105035;19;20407;-77
2024/04/18 01:37:31;;;;;;;7.57;5.50;;;;;;;3.31;100.00;97964.31;6104959;19;20006;-77
2024/04/18 01:39:32;;;;;;;7.57;4.93;;;;;;;3.33;100.00;97970.25;6094927;19;20007;-77
2024/04/18 01:41:32;;;;;;;7.75;5.10;;;;;;;3.34;100.00;97967.16;6106221;19;20010;-77
2024/04/18 01:43:32;;;;;;;8.50;5.25;;;;;;;3.39;100.00;97971.59;6105989;19;20385;-77
2024/04/18 01:45:33;;;;;;;7.90;5.53;;;;;;;3.35;100.00;97973.44;6104886;19;20471;-77
2024/04/18 01:47:33;;;;;;;8.55;6.00;;;;;;;3.32;100.00;97979.59;6107527;19;20027;-77
2024/04/18 01:49:33;;;;;;;6.60;5.05;;;;;;;3.30;100.00;97981.84;6106190;19;20006;-77
2024/04/18 01:51:35;;;;;;;9.77;6.38;;;;;;;3.28;100.00;97971.25;6110482;19;20350;-76
2024/04/18 01:53:36;;;;;;;6.97;5.70;;;;;;;3.32;100.00;97969.47;6112016;19;20006;-77
2024/04/18 01:55:36;;;;;;;8.18;6.22;;;;;;;3.31;100.00;97981.53;6112635;19;20007;-77
2024/04/18 01:57:37;;;;;;;7.00;5.05;;;;;;;3.29;100.00;97981.06;6112334;19;20416;-77
2024/04/18 01:59:38;;;;;;;6.30;5.07;;;;;;;3.29;100.00;97983.00;6107786;19;20003;-77
2024/04/18 02:01:38;;;;;;;7.35;5.40;;;;;;;3.26;100.00;97989.97;6110221;19;20010;-77
2024/04/18 02:03:39;;;;;;;6.40;4.85;;;;;;;3.26;100.00;97989.97;6109590;19;20010;-77
2024/04/18 02:05:39;;;;;;;7.28;5.43;;;;;;;3.27;100.00;97988.03;6110415;19;20017;-77
2024/04/18 02:07:40;;;;;;;7.43;5.68;;;;;;;3.28;100.00;97992.34;6111152;19;20009;-77
2024/04/18 02:09:40;;;;;;;6.45;4.90;;;;;;;3.27;100.00;97988.81;6108906;19;20359;-77
2024/04/18 02:11:41;;;;;;;6.90;5.20;;;;;;;3.29;100.00;97988.47;6109567;19;20582;-77
2024/04/18 02:13:41;;;;;;;7.28;5.30;;;;;;;3.31;100.00;97994.38;6109995;19;20015;-77
2024/04/18 02:15:42;;;;;;;6.97;5.88;;;;;;;3.32;100.00;97996.81;6111680;19;20348;-77
2024/04/18 02:17:42;;;;;;;7.43;5.30;;;;;;;3.33;100.00;97990.19;6109443;19;20487;-77
2024/04/18 02:19:42;;;;;;;11.40;6.90;;;;;;;3.32;100.00;97994.06;6107288;19;20007;-78
2024/04/18 02:21:42;;;;;;;14.13;5.95;;;;;;;3.33;100.00;97987.47;6109445;19;20014;-77
2024/04/18 02:23:43;;;;;;;8.75;6.38;;;;;;;3.31;100.00;97989.75;6108595;19;20471;-77
2024/04/18 02:25:43;;;;;;;8.18;5.70;;;;;;;3.30;100.00;97988.13;6109675;19;20478;-77
2024/04/18 02:27:44;;;;;;;9.43;5.53;;;;;;;3.27;100.00;97980.59;6109808;19;20002;-77
2024/04/18 02:29:44;;;;;;;9.07;5.95;;;;;;;3.27;100.00;97988.81;6110249;19;20007;-77
2024/04/18 02:31:44;;;;;;;10.35;5.75;;;;;;;3.29;100.00;97991.19;6111280;19;20003;-77
2024/04/18 02:33:45;;;;;;;8.98;5.68;;;;;;;3.30;100.00;97988.13;6109772;19;20043;-77
2024/04/18 02:35:46;;;;;;;8.80;6.30;;;;;;;3.31;100.00;97989.75;6108491;19;20006;-77
2024/04/18 02:37:46;;;;;;;9.25;5.95;;;;;;;3.31;100.00;98003.41;6108162;19;20011;-78
2024/04/18 02:39:47;;;;;;;9.25;5.68;;;;;;;3.39;100.00;97998.94;6104337;19;20014;-77
2024/04/18 02:41:47;;;;;;;7.72;5.47;;;;;;;3.38;100.00;98002.81;6102172;19;20018;-77
2024/04/18 02:43:55;;;;;;;8.65;5.95;;;;;;;3.62;100.00;98007.47;6101089;19;20451;-77
2024/04/18 02:45:55;;;;;;;8.10;5.88;;;;;;;3.60;100.00;98005.09;6101622;19;20003;-77
2024/04/18 02:47:55;;;;;;;8.48;5.38;;;;;;;3.55;100.00;98004.53;6103044;19;20007;-77
2024/04/18 02:49:56;;;;;;;8.30;5.97;;;;;;;3.53;100.00;98009.53;6103349;19;20404;-77
2024/04/18 02:51:56;;;;;;;9.48;6.05;;;;;;;3.52;100.00;98002.47;6101156;19;20637;-77
2024/04/18 02:53:56;;;;;;;8.30;5.60;;;;;;;3.44;100.00;98003.41;6103375;19;20007;-77
2024/04/18 02:55:57;;;;;;;6.97;5.30;;;;;;;3.44;100.00;98006.13;6103744;19;20358;-77
2024/04/18 02:57:57;;;;;;;10.00;5.88;;;;;;;3.50;100.00;98002.03;6101881;19;20030;-77
2024/04/18 02:59:59;;;;;;;8.20;5.53;;;;;;;3.46;100.00;98007.38;6100050;19;20402;-77
2024/04/18 03:02:03;;;;;;;8.35;5.38;;;;;;;3.40;100.00;98007.97;6100906;19;20403;-77
2024/04/18 03:04:04;;;;;;;7.75;5.43;;;;;;;3.43;100.00;98002.59;6099813;19;20011;-77
2024/04/18 03:06:04;;;;;;;9.43;4.65;;;;;;;3.36;100.00;98003.16;6100767;19;20019;-77
2024/04/18 03:08:05;;;;;;;7.90;5.22;;;;;;;3.36;100.00;98007.84;6102188;19;20550;-77
2024/04/18 03:10:06;;;;;;;7.82;5.55;;;;;;;3.34;100.00;98007.41;6099518;19;20463;-78
2024/04/18 03:12:06;;;;;;;9.85;5.60;;;;;;;3.40;100.00;98010.72;6099719;19;20007;-77
2024/04/18 03:14:06;;;;;;;9.00;5.55;;;;;;;3.41;100.00;98009.56;6100469;19;20776;-77
2024/04/18 03:16:07;;;;;;;7.53;5.53;;;;;;;3.42;100.00;98016.63;6102143;19;20086;-77
2024/04/18 03:18:07;;;;;;;6.93;5.22;;;;;;;3.48;100.00;98015.25;6099617;19;20007;-77
2024/04/18 03:20:07;;;;;;;10.57;5.13;;;;;;;3.41;100.00;98017.75;6100595;19;20119;-77
2024/04/18 03:22:08;;;;;;;6.95;4.97;;;;;;;3.32;100.00;98007.75;6100108;19;19999;-77
2024/04/18 03:24:22;;;;;;;8.15;5.22;;;;;;;3.41;100.00;98015.81;6100351;19;20002;-77
2024/04/18 03:26:22;;;;;;;7.85;5.50;;;;;;;3.44;100.00;98022.53;6102472;19;20119;-77
2024/04/18 03:28:22;;;;;;;9.30;5.57;;;;;;;3.45;100.00;98016.72;6100852;19;20026;-78
2024/04/18 03:30:23;;;;;;;9.15;5.70;;;;;;;3.51;100.00;98025.50;6102495;19;20110;-77
2024/04/18 03:32:23;;;;;;;9.10;5.65;;;;;;;3.56;100.00;98022.56;6102390;19;20006;-77
2024/04/18 03:34:23;;;;;;;8.20;4.97;;;;;;;3.53;100.00;98029.47;6101960;19;20014;-77
2024/04/18 03:36:24;;;;;;;7.05;5.35;;;;;;;3.44;100.00;98031.53;6100893;19;20014;-77
2024/04/18 03:38:24;;;;;;;9.60;6.10;;;;;;;3.44;100.00;98028.81;6101828;19;20025;-77
2024/04/18 03:40:24;;;;;;;7.85;5.10;;;;;;;3.45;100.00;98024.13;6102396;19;20024;-77
2024/04/18 03:42:24;;;;;;;9.00;6.15;;;;;;;3.45;100.00;98029.59;6108825;19;20499;-77
2024/04/18 03:44:25;;;;;;;10.65;7.47;;;;;;;3.48;100.00;98034.41;6107204;19;20007;-77
2024/04/18 03:46:25;;;;;;;9.75;7.18;;;;;;;3.53;100.00;98032.22;6108037;19;21295;-77
2024/04/18 03:48:26;;;;;;;8.57;6.65;;;;;;;3.49;100.00;98033.25;6107273;19;20544;-76
2024/04/18 03:50:27;;;;;;;10.93;6.55;;;;;;;3.48;100.00;98032.47;6107124;19;20019;-77
2024/04/18 03:52:27;;;;;;;9.18;6.85;;;;;;;3.41;100.00;98042.38;6106829;19;20546;-77
2024/04/18 03:54:28;;;;;;;13.55;6.60;;;;;;;3.37;100.00;98043.03;6107649;19;20013;-77
2024/04/18 03:56:28;;;;;;;8.95;6.18;;;;;;;3.38;100.00;98041.09;6109866;19;20027;-77
2024/04/18 03:58:29;;;;;;;9.13;6.60;;;;;;;3.41;100.00;98050.59;6106863;19;20793;-76
2024/04/18 04:00:29;;;;;;;7.80;5.57;;;;;;;3.48;100.00;98045.34;6104678;19;20073;-77
2024/04/18 04:02:32;;;;;;;6.78;5.13;;;;;;;3.38;100.00;98052.84;6107518;19;20031;-77
2024/04/18 04:04:33;;;;;;;9.50;6.28;;;;;;;3.29;100.00;98046.69;6108775;19;20003;-77
2024/04/18 04:06:33;;;;;;;7.80;5.57;;;;;;;3.37;100.00;98051.25;6109100;19;20009;-77
2024/04/18 04:08:33;;;;;;;11.48;6.28;;;;;;;3.38;100.00;98052.03;6106472;19;20003;-77
2024/04/18 04:10:34;;;;;;;9.50;4.97;;;;;;;3.41;100.00;98056.06;6104000;19;20007;-77
2024/04/18 04:12:36;;;;;;;7.40;5.55;;;;;;;3.32;100.00;98061.63;6108555;19;20379;-77
2024/04/18 04:14:36;;;;;;;8.05;5.10;;;;;;;3.38;100.00;98069.25;6106617;19;20011;-77
2024/04/18 04:16:37;;;;;;;5.63;4.80;;;;;;;3.44;100.00;98067.09;6105867;19;20066;-76
2024/04/18 04:18:37;;;;;;;5.18;4.10;;;;;;;3.52;100.00;98073.59;6106198;19;20053;-76
2024/04/18 04:20:37;;;;;;;9.45;5.07;;;;;;;3.40;100.00;98074.41;6105678;19;20021;-76
2024/04/18 04:22:38;;;;;;;7.68;5.40;;;;;;;3.39;100.00;98075.50;6104535;19;20002;-77
2024/04/18 04:24:38;;;;;;;8.68;5.03;;;;;;;3.31;100.00;98079.97;6106963;19;20020;-77
2024/04/18 04:26:38;;;;;;;6.65;4.22;;;;;;;3.43;100.00;98081.13;6109159;19;20018;-77
2024/04/18 04:28:39;;;;;;;6.43;4.60;;;;;;;3.37;100.00;98081.31;6105679;19;20024;-77
2024/04/18 04:30:39;;;;;;;7.88;5.22;;;;;;;3.33;100.00;98083.16;6105888;19;20271;-77
2024/04/18 04:32:39;;;;;;;8.48;5.20;;;;;;;3.30;100.00;98085.75;6105847;19;20130;-77
2024/04/18 04:34:40;;;;;;;9.02;5.30;;;;;;;3.22;100.00;98092.13;6103821;19;20099;-76
2024/04/18 04:36:40;;;;;;;6.82;4.90;;;;;;;3.37;100.00;98086.00;6106202;19;20448;-76
2024/04/18 04:38:40;;;;;;;7.40;5.18;;;;;;;3.38;100.00;98084.84;6104270;19;20002;-77
2024/04/18 04:40:41;;;;;;;6.28;4.45;;;;;;;3.40;100.00;98090.81;6103788;19;20006;-77
2024/04/18 04:42:41;;;;;;;8.50;5.05;;;;;;;3.30;100.00;98093.97;6105777;19;20030;-77
2024/04/18 04:44:41;;;;;;;6.63;4.85;;;;;;;3.32;100.00;98097.97;6103950;19;20454;-77
2024/04/18 04:46:43;;;;;;;8.60;5.10;;;;;;;3.30;100.00;98102.97;6107399;19;20030;-77
2024/04/18 04:48:44;;;;;;;6.77;4.60;;;;;;;3.39;100.00;98108.31;6105487;19;20007;-78
2024/04/18 04:50:53;;;;;;;7.45;5.07;;;;;;;3.31;100.00;98107.31;6107500;19;20022;-77
2024/04/18 04:52:53;;;;;;;9.48;5.20;;;;;;;3.31;100.00;98110.06;6107012;19;20494;-76
2024/04/18 04:54:54;;;;;;;8.93;5.00;;;;;;;3.37;100.00;98113.34;6105917;19;20455;-76
2024/04/18 04:56:54;;;;;;;8.55;5.20;;;;;;;3.43;100.00;98122.13;6105975;19;20293;-78
2024/04/18 04:58:54;;;;;;;10.27;5.32;;;;;;;3.43;100.00;98125.66;6107920;19;20353;-76
2024/04/18 05:00:56;;;;;;;9.63;5.50;;;;;;;3.40;100.00;98120.09;6104996;19;20030;-76
2024/04/18 05:02:56;;;;;;;8.65;5.38;;;;;;;3.38;100.00;98126.69;6107084;19;20019;-77
2024/04/18 05:04:57;;;;;;;8.63;6.05;;;;;;;3.38;100.00;98120.41;6106930;19;20014;-77
2024/04/18 05:06:57;;;;;;;8.93;5.32;;;;;;;3.42;100.00;98126.00;6107793;19;20431;-76
2024/04/18 05:08:57;;;;;;;11.10;6.03;;;;;;;3.35;100.00;98130.09;6107613;19;20007;-76
2024/04/18 05:10:58;;;;;;;10.25;6.05;;;;;;;3.36;100.00;98126.22;6104227;19;20003;-77
2024/04/18 05:13:00;;;;;;;11.45;6.45;;;;;;;3.35;100.00;98134.78;6105268;19;20314;-76
2024/04/18 05:15:01;;;;;;;12.43;6.28;;;;;;;3.37;100.00;98132.50;6104419;19;20014;-76
2024/04/18 05:17:01;;;;;;;9.65;6.30;;;;;;;3.42;100.00;98142.44;6105076;19;20009;-76
2024/04/18 05:19:02;;;;;;;13.55;7.25;;;;;;;3.44;100.00;98146.41;6101783;19;20014;-76
2024/04/18 05:21:02;;;;;;;16.08;8.45;;;;;;;3.40;100.00;98140.03;6105319;19;20015;-77
2024/04/18 05:23:04;;;;;;;13.98;8.80;;;;;;;3.43;100.00;98149.50;6103674;19;20479;-76
2024/04/18 05:25:04;;;;;;;11.30;6.75;;;;;;;3.55;100.00;98152.22;6105703;19;20369;-77
2024/04/18 05:27:04;;;;;;;14.98;9.98;;;;;;;3.57;100.00;98155.44;6106604;19;20019;-77
2024/04/18 05:31:24;;;;;;;17.67;9.93;;;;;;;3.61;100.00;98159.09;6107387;19;20496;-77
2024/04/18 05:33:24;;;;;;;18.17;9.13;;;;;;;3.73;100.00;98156.38;6107891;19;20882;-76
2024/04/18 05:35:24;;;;;;;18.35;10.25;;;;;;;3.70;100.00;98158.97;6106442;19;19999;-77
2024/04/18 05:37:25;;;;;;;18.55;10.35;;;;;;;3.68;100.00;98164.81;6107365;19;20490;-77
2024/04/18 05:39:26;;;;;;;17.45;9.45;;;;;;;3.76;100.00;98171.31;6104344;19;19995;-77
2024/04/18 05:41:26;;;;;;;15.68;8.52;;;;;;;3.82;100.00;98176.22;6103393;19;20019;-77
2024/04/18 05:43:27;;;;;;;18.75;10.55;;;;;;;3.76;100.00;98179.53;6103395;19;20058;-76
2024/04/18 05:45:27;;;;;;;17.13;11.02;;;;;;;3.70;100.00;98176.19;6104125;19;20403;-77
2024/04/18 05:47:28;;;;;;;16.80;9.75;;;;;;;3.79;100.00;98187.84;6107082;19;20577;-77
2024/04/18 05:49:28;;;;;;;15.88;10.63;;;;;;;3.81;100.00;98191.06;6103993;19;19999;-77
2024/04/18 05:51:28;;;;;;;14.43;9.27;;;;;;;3.93;100.00;98187.50;6102986;19;20370;-76
2024/04/18 05:53:28;;;;;;;14.45;9.45;;;;;;;3.92;100.00;98186.72;6107048;19;20009;-77
2024/04/18 05:55:29;;;;;;;16.85;8.48;;;;;;;4.05;100.00;98194.91;6105192;19;20003;-77
2024/04/18 05:57:29;;;;;;;10.95;8.55;;;;;;;4.04;100.00;98193.34;6104083;19;20364;-77
2024/04/18 05:59:29;;;;;;;13.88;9.23;;;;;;;4.06;100.00;98193.81;6106262;19;20758;-77
2024/04/18 06:01:30;;;;;;;16.08;8.98;;;;;;;4.16;100.00;98210.56;6105943;19;20002;-77
2024/04/18 06:03:30;;;;;;;14.07;8.75;;;;;;;4.17;100.00;98208.63;6107102;19;20022;-77
2024/04/18 06:05:30;;;;;;;15.63;9.98;;;;;;;4.16;100.00;98207.03;6106894;19;20028;-77
2024/04/18 06:07:31;;;;;;;15.75;10.23;;;;;;;4.16;100.00;98209.78;6105334;19;20006;-76
2024/04/18 06:09:31;;;;;;;12.57;8.98;;;;;;;4.19;100.00;98204.41;6105449;19;20090;-76
2024/04/18 06:11:35;;;;;;;14.70;9.77;;;;;;;4.18;100.00;98219.25;6105400;19;20026;-77
2024/04/18 06:13:38;;;;;;;12.68;8.30;;;;;;;4.19;100.00;98209.88;6104828;19;20007;-77
2024/04/18 06:15:45;;;;;;;18.20;9.73;;;;;;;4.27;100.00;98215.59;6104660;19;19999;-76
2024/04/18 06:17:45;;;;;;;15.00;9.77;;;;;;;4.31;100.00;98219.25;6105058;19;20026;-77
2024/04/18 06:19:50;;;;;;;13.95;8.82;;;;;;;4.41;100.00;98213.31;6105158;19;20388;-77
2024/04/18 06:21:50;;;;;;;16.05;9.90;;;;;;;4.44;100.00;98218.09;6105543;19;20083;-76
2024/04/18 06:23:51;;;;;;;14.52;9.13;;;;;;;4.48;100.00;98225.28;6104149;19;20466;-76
2024/04/18 06:25:51;;;;;;;13.30;8.35;;;;;;;4.51;100.00;98224.59;6103593;19;20002;-77
2024/04/18 06:27:51;;;;;;;13.70;9.13;;;;;;;4.48;100.00;98227.22;6104707;19;20006;-76
2024/04/18 06:29:52;;;;;;;15.20;9.82;;;;;;;4.54;100.00;98227.78;6103081;19;20007;-77
2024/04/18 06:31:52;;;;;;;20.70;12.68;;;;;;;4.61;100.00;98241.69;6105917;19;20680;-76
2024/04/18 06:33:52;;;;;;;12.13;8.45;;;;;;;4.65;100.00;98242.63;6107041;19;20002;-77
2024/04/18 06:35:53;;;;;;;13.52;8.63;;;;;;;4.70;100.00;98243.16;6111289;19;20017;-76
2024/04/18 06:37:53;;;;;;;11.32;8.52;;;;;;;4.75;100.00;98242.94;6109001;19;20014;-76
2024/04/18 06:39:53;;;;;;;12.65;8.30;;;;;;;4.80;100.00;98247.41;6098231;19;20011;-77
2024/04/18 06:41:54;;;;;;;14.10;7.95;;;;;;;4.85;100.00;98246.34;6110693;19;20007;-76
2024/04/18 06:43:54;;;;;;;12.98;8.57;;;;;;;4.90;100.00;98255.16;6110975;19;20006;-76
2024/04/18 06:45:55;;;;;;;13.57;9.55;;;;;;;4.98;100.00;98256.16;6109384;19;20011;-76
2024/04/18 06:47:55;;;;;;;14.02;9.13;;;;;;;5.01;100.00;98259.00;6109400;19;20087;-76
2024/04/18 06:49:55;;;;;;;10.70;8.07;;;;;;;5.03;100.00;98267.66;6110227;19;19999;-76
2024/04/18 06:51:56;;;;;;;12.35;9.40;;;;;;;4.98;100.00;98265.19;6111296;19;20003;-76
2024/04/18 06:53:56;;;;;;;13.10;9.02;;;;;;;4.97;100.00;98271.81;6111023;19;20003;-76
2024/04/18 06:55:56;;;;;;;10.75;7.50;;;;;;;4.95;100.00;98274.06;6110138;19;20003;-76
2024/04/18 06:57:57;;;;;;;12.10;8.02;;;;;;;4.89;100.00;98280.16;6108495;19;20002;-76
2024/04/18 06:59:57;;;;;;;10.65;7.82;;;;;;;4.90;100.00;98271.59;6109575;19;20360;-76
2024/04/18 07:01:58;;;;;;;12.02;7.93;;;;;;;4.88;100.00;98286.75;6109019;19;20047;-76
2024/04/18 07:03:58;;;;;;;10.40;7.43;;;;;;;4.86;100.00;98283.56;6108957;19;20529;-76
2024/04/18 07:05:58;;;;;;;9.27;6.70;;;;;;;4.88;100.00;98289.50;6109038;19;20010;-77
2024/04/18 07:07:59;;;;;;;12.30;8.30;;;;;;;4.94;100.00;98288.13;6107244;19;20017;-77
2024/04/18 07:09:59;;;;;;;9.82;7.55;;;;;;;4.94;100.00;98285.38;6106962;19;20024;-77
2024/04/18 07:12:00;;;;;;;10.55;7.30;;;;;;;4.93;100.00;98292.81;6111125;19;20056;-77
2024/04/18 07:14:00;;;;;;;13.52;7.45;;;;;;;4.89;100.00;98297.41;6108286;19;20013;-76
2024/04/18 07:16:04;;;;;;;10.70;7.65;;;;;;;4.96;100.00;98302.28;6109943;19;20015;-76
2024/04/18 07:18:04;;;;;;;13.35;8.77;;;;;;;4.99;100.00;98307.09;6108862;19;20007;-76
2024/04/18 07:20:05;;;;;;;10.90;8.00;;;;;;;4.94;100.00;98302.63;6109122;19;20007;-77
2024/04/18 07:22:05;;;;;;;14.55;8.95;;;;;;;4.95;100.00;98301.50;6108313;19;20011;-76
2024/04/18 07:24:07;;;;;;;12.10;8.47;;;;;;;4.86;100.00;98308.25;6107197;19;20014;-76
2024/04/18 07:26:07;;;;;;;13.02;9.63;;;;;;;4.91;100.00;98311.56;6109686;19;20278;-76
2024/04/18 07:28:08;;;;;;;13.00;9.50;;;;;;;4.94;100.00;98307.31;6109147;19;20030;-76
2024/04/18 07:30:09;;;;;;;11.93;7.90;;;;;;;4.99;100.00;98312.59;6107418;19;20026;-76
2024/04/18 07:32:10;;;;;;;12.27;8.70;;;;;;;5.06;100.00;98319.09;6108170;19;20352;-76
2024/04/18 07:34:10;;;;;;;18.77;9.52;;;;;;;5.13;100.00;98321.25;6108284;19;20007;-77
2024/04/18 07:36:10;;;;;;;13.05;8.50;;;;;;;5.20;100.00;98323.38;6106836;19;20035;-76
2024/04/18 07:38:11;;;;;;;12.43;8.20;;;;;;;5.32;100.00;98317.88;6107757;19;20006;-77
2024/04/18 07:40:15;;;;;;;11.90;7.10;;;;;;;5.46;100.00;98325.72;6104090;19;20493;-76
2024/04/18 07:42:16;;;;;;;11.38;7.97;;;;;;;5.55;100.00;98331.88;6100840;19;20002;-76
2024/04/18 07:44:16;;;;;;;9.52;7.35;;;;;;;5.59;100.00;98336.31;6101835;19;20013;-76
2024/04/18 07:46:18;;;;;;;14.35;9.52;;;;;;;5.63;100.00;98341.91;6103678;19;20331;-76
2024/04/18 07:48:18;;;;;;;13.27;8.38;;;;;;;5.57;100.00;98341.38;6101065;19;20022;-76
2024/04/18 07:50:18;;;;;;;9.80;7.18;;;;;;;5.60;100.00;98340.66;6102327;19;20007;-76
2024/04/18 07:52:19;;;;;;;9.43;6.47;;;;;;;5.63;100.00;98344.66;6103043;19;20005;-77
2024/04/18 07:54:20;;;;;;;8.93;7.20;;;;;;;5.68;100.00;98346.34;6102831;19;20003;-76
2024/04/18 07:56:20;;;;;;;9.85;6.82;;;;;;;5.78;100.00;98345.84;6101224;19;20684;-76
2024/04/18 07:58:20;;;;;;;8.90;5.78;;;;;;;5.84;100.00;98350.75;6102762;19;20030;-77
2024/04/18 08:00:21;;;;;;;10.52;6.85;;;;;;;5.89;100.00;98347.75;6099768;19;20460;-76
2024/04/18 08:02:21;;;;;;;10.20;6.75;;;;;;;5.95;100.00;98350.25;6103163;19;20003;-76
2024/04/18 08:04:22;;;;;;;8.13;5.88;;;;;;;5.97;100.00;98354.28;6102645;19;20282;-76
2024/04/18 08:06:22;;;;;;;7.45;5.90;;;;;;;5.95;100.00;98355.75;6102332;19;20042;-76
2024/04/18 08:08:22;;;;;;;6.45;5.22;;;;;;;6.00;100.00;98359.06;6102168;19;20006;-76
2024/04/18 08:10:23;;;;;;;7.80;5.65;;;;;;;5.89;100.00;98361.50;6101901;19;20011;-76
2024/04/18 08:12:23;;;;;;;7.32;5.72;;;;;;;5.90;100.00;98354.88;6102201;19;20000;-75
2024/04/18 08:14:23;;;;;;;8.82;5.82;;;;;;;5.95;100.00;98367.53;6101125;19;20318;-76
2024/04/18 08:16:24;;;;;;;8.20;5.93;;;;;;;6.02;100.00;98370.50;6102724;19;19999;-76
2024/04/18 08:18:24;;;;;;;8.07;5.75;;;;;;;6.06;100.00;98374.16;6101756;19;19998;-76
2024/04/18 08:20:24;;;;;;;8.73;6.70;;;;;;;6.15;100.00;98372.03;6100120;19;20399;-76
2024/04/18 08:22:25;;;;;;;8.05;5.70;;;;;;;6.22;100.00;98374.19;6102077;19;20007;-75
2024/04/18 08:24:28;;;;;;;11.50;5.68;;;;;;;6.15;100.00;98380.28;6100416;19;20120;-75
2024/04/18 08:26:29;;;;;;;7.80;6.05;;;;;;;6.07;100.00;98381.22;6100153;19;20009;-75
2024/04/18 08:28:29;;;;;;;10.40;6.00;;;;;;;5.99;100.00;98375.91;6102752;19;20010;-76
2024/04/18 08:30:29;;;;;;;8.75;6.25;;;;;;;5.95;100.00;98381.28;6100803;19;20113;-75
2024/04/18 08:32:29;;;;;;;8.57;6.07;;;;;;;5.85;100.00;98379.78;6100359;19;20078;-76
2024/04/18 08:34:30;;;;;;;7.72;5.43;;;;;;;5.81;100.00;98384.41;6102438;19;20044;-76
2024/04/18 08:36:30;;;;;;;9.27;6.60;;;;;;;5.79;100.00;98386.72;6101452;19;20343;-76
2024/04/18 08:38:30;;;;;;;8.98;5.43;;;;;;;5.75;100.00;98383.03;6101438;19;20006;-76
2024/04/18 08:40:31;;;;;;;6.95;5.30;;;;;;;5.76;100.00;98386.59;6104882;19;20010;-76
2024/04/18 08:42:31;;;;;;;8.98;5.63;;;;;;;5.93;100.00;98397.31;6108954;19;20009;-76
2024/04/18 08:44:31;;;;;;;7.93;6.15;;;;;;;6.03;100.00;98401.50;6108568;19;20481;-77
2024/04/18 08:46:38;;;;;;;10.68;5.93;;;;;;;6.18;100.00;98392.50;6107158;19;20030;-76
2024/04/18 08:48:38;;;;;;;8.32;6.30;;;;;;;6.27;100.00;98387.66;6108051;19;20012;-75
2024/04/18 08:50:41;;;;;;;7.38;5.72;;;;;;;6.36;100.00;98391.03;6106408;19;20529;-75
2024/04/18 08:52:43;;;;;;;9.48;6.97;;;;;;;6.42;100.00;98394.31;6108321;19;20002;-75
2024/04/18 08:54:44;;;;;;;;;;;;;;;6.36;100.00;98403.97;6109420;19;20007;-75
2024/04/18 08:56:50;;;;;;;9.10;5.55;;;;;;;6.21;100.00;98391.81;6107414;19;19985;-76
2024/04/18 08:58:50;;;;;;;7.68;5.75;;;;;;;6.11;100.00;98400.53;6105302;19;20070;-76
2024/04/18 09:00:51;;;;;;;8.43;5.38;;;;;;;6.09;100.00;98400.91;6106659;19;20006;-76
2024/04/18 09:02:52;;;;;;;9.60;5.90;;;;;;;6.07;100.00;98403.22;6108263;19;20576;-76
2024/04/18 09:04:53;;;;;;;7.45;5.03;;;;;;;6.06;100.00;98404.34;6107620;19;20010;-76
2024/04/18 09:06:53;;;;;;;8.65;5.95;;;;;;;6.05;100.00;98412.97;6106570;19;20471;-76
2024/04/18 09:09:00;;;;;;;8.25;5.78;;;;;;;6.16;100.00;98408.53;6108308;19;20007;-76
2024/04/18 09:11:00;;;;;;;7.63;5.50;;;;;;;6.15;100.00;98404.19;6107269;19;20006;-76
2024/04/18 09:13:00;;;;;;;7.70;5.15;;;;;;;6.24;100.00;98412.28;6106265;19;20603;-76
2024/04/18 09:15:02;;;;;;;6.68;5.28;;;;;;;6.22;100.00;98409.91;6107890;19;20007;-76
2024/04/18 09:17:13;;;;;;;8.90;5.25;;;;;;;6.20;100.00;98410.22;6108133;19;20007;-76
2024/04/18 09:19:14;;;;;;;7.72;4.35;;;;;;;6.22;100.00;98414.59;6107535;19;20006;-76
2024/04/18 09:21:15;;;;;;;7.53;4.97;;;;;;;6.26;100.00;98420.97;6103663;19;20014;-77
2024/04/18 09:23:16;;;;;;;8.98;4.93;;;;;;;6.24;100.00;98421.34;6107182;19;20021;-77
2024/04/18 09:25:17;;;;;;;7.68;4.80;;;;;;;6.15;100.00;98428.94;6107384;19;20035;-77
2024/04/18 09:27:18;;;;;;;6.95;4.88;;;;;;;6.21;100.00;98433.03;6105707;19;20543;-76
2024/04/18 09:29:21;;;;;;;7.10;4.93;;;;;;;6.22;100.00;98428.34;6105145;19;20094;-77